sensor_id;sensor_type;location;lat;lon;timestamp;P1;durP1;ratioP1;P2;durP2;ratioP2
15273;SDS011;7738;49.532;11.156;2022-08-21T00:02:26;7.70;;;5.53;;
15273;SDS011;7738;49.532;11.156;2022-08-21T00:04:57;6.25;;;5.00;;
15273;SDS011;7738;49.532;11.156;2022-08-21T00:07:27;7.72;;;4.63;;
15273;SDS011;7738;49.532;11.156;2022-08-21T00:09:58;6.40;;;4.30;;
15273;SDS011;7738;49.532;11.156;2022-08-21T00:12:28;5.25;;;4.45;;
15273;SDS011;7738;49.532;11.156;2022-08-21T00:15:01;7.70;;;4.75;;
15273;SDS011;7738;49.532;11.156;2022-08-21T00:17:33;8.45;;;5.00;;
15273;SDS011;7738;49.532;11.156;2022-08-21T00:20:04;6.95;;;4.60;;
15273;SDS011;7738;49.532;11.156;2022-08-21T00:22:35;5.93;;;4.97;;
15273;SDS011;7738;49.532;11.156;2022-08-21T00:25:06;9.13;;;5.35;;
15273;SDS011;7738;49.532;11.156;2022-08-21T00:27:37;6.53;;;5.50;;
15273;SDS011;7738;49.532;11.156;2022-08-21T00:30:11;6.82;;;5.38;;
15273;SDS011;7738;49.532;11.156;2022-08-21T00:32:48;11.18;;;6.45;;
15273;SDS011;7738;49.532;11.156;2022-08-21T00:35:20;8.05;;;5.68;;
15273;SDS011;7738;49.532;11.156;2022-08-21T00:37:51;6.35;;;5.10;;
15273;SDS011;7738;49.532;11.156;2022-08-21T00:40:22;8.63;;;4.80;;
15273;SDS011;7738;49.532;11.156;2022-08-21T00:42:54;5.38;;;4.20;;
15273;SDS011;7738;49.532;11.156;2022-08-21T00:45:27;6.30;;;4.82;;
15273;SDS011;7738;49.532;11.156;2022-08-21T00:47:58;7.43;;;4.47;;
15273;SDS011;7738;49.532;11.156;2022-08-21T00:50:29;6.68;;;4.65;;
15273;SDS011;7738;49.532;11.156;2022-08-21T00:53:02;5.43;;;4.40;;
15273;SDS011;7738;49.532;11.156;2022-08-21T00:55:33;5.95;;;4.22;;
15273;SDS011;7738;49.532;11.156;2022-08-21T00:58:06;4.28;;;3.47;;
15273;SDS011;7738;49.532;11.156;2022-08-21T01:00:40;8.10;;;4.80;;
15273;SDS011;7738;49.532;11.156;2022-08-21T01:05:41;6.95;;;4.95;;
15273;SDS011;7738;49.532;11.156;2022-08-21T01:08:12;8.07;;;5.32;;
15273;SDS011;7738;49.532;11.156;2022-08-21T01:10:43;8.63;;;5.10;;
15273;SDS011;7738;49.532;11.156;2022-08-21T01:13:24;8.30;;;6.05;;
15273;SDS011;7738;49.532;11.156;2022-08-21T01:15:59;9.93;;;6.30;;
15273;SDS011;7738;49.532;11.156;2022-08-21T01:18:31;10.93;;;5.82;;
15273;SDS011;7738;49.532;11.156;2022-08-21T01:21:06;9.63;;;6.50;;
15273;SDS011;7738;49.532;11.156;2022-08-21T01:23:40;8.73;;;6.63;;
15273;SDS011;7738;49.532;11.156;2022-08-21T01:26:11;11.15;;;7.65;;
15273;SDS011;7738;49.532;11.156;2022-08-21T01:28:45;9.05;;;6.90;;
15273;SDS011;7738;49.532;11.156;2022-08-21T01:31:17;10.27;;;6.97;;
15273;SDS011;7738;49.532;11.156;2022-08-21T01:33:52;8.93;;;6.40;;
15273;SDS011;7738;49.532;11.156;2022-08-21T01:36:25;11.02;;;6.82;;
15273;SDS011;7738;49.532;11.156;2022-08-21T01:38:56;10.32;;;6.30;;
15273;SDS011;7738;49.532;11.156;2022-08-21T01:41:26;9.15;;;5.28;;
15273;SDS011;7738;49.532;11.156;2022-08-21T01:43:56;8.27;;;5.43;;
15273;SDS011;7738;49.532;11.156;2022-08-21T01:46:27;7.30;;;4.45;;
15273;SDS011;7738;49.532;11.156;2022-08-21T01:48:57;6.85;;;3.72;;
15273;SDS011;7738;49.532;11.156;2022-08-21T01:51:30;5.13;;;3.83;;
15273;SDS011;7738;49.532;11.156;2022-08-21T01:54:00;5.70;;;3.75;;
15273;SDS011;7738;49.532;11.156;2022-08-21T01:56:35;7.60;;;3.80;;
15273;SDS011;7738;49.532;11.156;2022-08-21T01:59:06;4.07;;;3.28;;
15273;SDS011;7738;49.532;11.156;2022-08-21T02:01:36;5.45;;;3.65;;
15273;SDS011;7738;49.532;11.156;2022-08-21T02:04:07;3.90;;;3.08;;
15273;SDS011;7738;49.532;11.156;2022-08-21T02:06:40;6.80;;;4.68;;
15273;SDS011;7738;49.532;11.156;2022-08-21T02:09:11;7.45;;;5.47;;
15273;SDS011;7738;49.532;11.156;2022-08-21T02:11:42;7.82;;;5.47;;
15273;SDS011;7738;49.532;11.156;2022-08-21T02:14:13;6.72;;;5.28;;
15273;SDS011;7738;49.532;11.156;2022-08-21T02:19:35;6.43;;;4.85;;
15273;SDS011;7738;49.532;11.156;2022-08-21T02:22:09;5.18;;;4.10;;
15273;SDS011;7738;49.532;11.156;2022-08-21T02:24:39;7.78;;;3.58;;
15273;SDS011;7738;49.532;11.156;2022-08-21T02:27:19;4.72;;;3.80;;
15273;SDS011;7738;49.532;11.156;2022-08-21T02:29:52;7.18;;;4.32;;
15273;SDS011;7738;49.532;11.156;2022-08-21T02:32:23;4.32;;;3.92;;
15273;SDS011;7738;49.532;11.156;2022-08-21T02:34:54;5.25;;;4.50;;
15273;SDS011;7738;49.532;11.156;2022-08-21T02:37:27;7.30;;;4.57;;
15273;SDS011;7738;49.532;11.156;2022-08-21T02:39:58;8.40;;;4.47;;
15273;SDS011;7738;49.532;11.156;2022-08-21T02:42:28;7.53;;;5.07;;
15273;SDS011;7738;49.532;11.156;2022-08-21T02:44:58;7.82;;;5.70;;
15273;SDS011;7738;49.532;11.156;2022-08-21T02:47:29;7.10;;;5.10;;
15273;SDS011;7738;49.532;11.156;2022-08-21T02:49:59;6.43;;;4.88;;
15273;SDS011;7738;49.532;11.156;2022-08-21T02:52:31;5.78;;;4.45;;
15273;SDS011;7738;49.532;11.156;2022-08-21T02:57:33;6.15;;;4.20;;
15273;SDS011;7738;49.532;11.156;2022-08-21T03:00:04;6.43;;;4.35;;
15273;SDS011;7738;49.532;11.156;2022-08-21T03:02:36;6.35;;;4.70;;
15273;SDS011;7738;49.532;11.156;2022-08-21T03:05:07;7.28;;;4.40;;
15273;SDS011;7738;49.532;11.156;2022-08-21T03:07:42;5.68;;;4.60;;
15273;SDS011;7738;49.532;11.156;2022-08-21T03:10:13;7.95;;;4.18;;
15273;SDS011;7738;49.532;11.156;2022-08-21T03:12:46;7.07;;;4.10;;
15273;SDS011;7738;49.532;11.156;2022-08-21T03:15:17;5.22;;;3.58;;
15273;SDS011;7738;49.532;11.156;2022-08-21T03:17:50;6.03;;;4.13;;
15273;SDS011;7738;49.532;11.156;2022-08-21T03:20:21;4.95;;;4.28;;
15273;SDS011;7738;49.532;11.156;2022-08-21T03:22:56;7.65;;;4.40;;
15273;SDS011;7738;49.532;11.156;2022-08-21T03:25:26;4.95;;;3.72;;
15273;SDS011;7738;49.532;11.156;2022-08-21T03:28:10;9.77;;;4.43;;
15273;SDS011;7738;49.532;11.156;2022-08-21T03:30:42;4.13;;;3.72;;
15273;SDS011;7738;49.532;11.156;2022-08-21T03:33:13;5.55;;;4.10;;
15273;SDS011;7738;49.532;11.156;2022-08-21T03:35:50;6.15;;;3.88;;
15273;SDS011;7738;49.532;11.156;2022-08-21T03:38:30;3.58;;;2.92;;
15273;SDS011;7738;49.532;11.156;2022-08-21T03:41:01;8.18;;;3.53;;
15273;SDS011;7738;49.532;11.156;2022-08-21T03:43:33;4.28;;;3.35;;
15273;SDS011;7738;49.532;11.156;2022-08-21T03:46:05;5.50;;;3.28;;
15273;SDS011;7738;49.532;11.156;2022-08-21T03:48:36;4.28;;;3.25;;
15273;SDS011;7738;49.532;11.156;2022-08-21T03:51:07;6.25;;;3.40;;
15273;SDS011;7738;49.532;11.156;2022-08-21T03:53:40;3.15;;;2.80;;
15273;SDS011;7738;49.532;11.156;2022-08-21T03:56:11;4.43;;;2.67;;
15273;SDS011;7738;49.532;11.156;2022-08-21T03:58:42;4.55;;;2.60;;
15273;SDS011;7738;49.532;11.156;2022-08-21T04:01:12;4.38;;;2.58;;
15273;SDS011;7738;49.532;11.156;2022-08-21T04:03:42;6.43;;;2.95;;
15273;SDS011;7738;49.532;11.156;2022-08-21T04:06:12;3.90;;;2.83;;
15273;SDS011;7738;49.532;11.156;2022-08-21T04:08:45;3.00;;;2.50;;
15273;SDS011;7738;49.532;11.156;2022-08-21T04:11:15;3.20;;;2.55;;
15273;SDS011;7738;49.532;11.156;2022-08-21T04:13:45;3.65;;;2.90;;
15273;SDS011;7738;49.532;11.156;2022-08-21T04:16:16;3.67;;;2.53;;
15273;SDS011;7738;49.532;11.156;2022-08-21T04:18:46;5.70;;;3.35;;
15273;SDS011;7738;49.532;11.156;2022-08-21T04:21:16;4.72;;;3.15;;
15273;SDS011;7738;49.532;11.156;2022-08-21T04:23:53;4.43;;;3.70;;
15273;SDS011;7738;49.532;11.156;2022-08-21T04:26:23;4.97;;;4.00;;
15273;SDS011;7738;49.532;11.156;2022-08-21T04:28:54;9.60;;;4.72;;
15273;SDS011;7738;49.532;11.156;2022-08-21T04:31:24;8.25;;;4.32;;
15273;SDS011;7738;49.532;11.156;2022-08-21T04:33:55;10.20;;;4.57;;
15273;SDS011;7738;49.532;11.156;2022-08-21T04:36:25;7.55;;;4.80;;
15273;SDS011;7738;49.532;11.156;2022-08-21T04:38:58;5.40;;;3.13;;
15273;SDS011;7738;49.532;11.156;2022-08-21T04:41:29;4.85;;;3.08;;
15273;SDS011;7738;49.532;11.156;2022-08-21T04:43:59;10.57;;;4.57;;
15273;SDS011;7738;49.532;11.156;2022-08-21T04:46:29;23.08;;;5.60;;
15273;SDS011;7738;49.532;11.156;2022-08-21T04:48:59;15.85;;;5.63;;
15273;SDS011;7738;49.532;11.156;2022-08-21T04:51:32;34.42;;;5.40;;
15273;SDS011;7738;49.532;11.156;2022-08-21T04:54:09;35.80;;;5.00;;
15273;SDS011;7738;49.532;11.156;2022-08-21T04:56:42;12.85;;;5.10;;
15273;SDS011;7738;49.532;11.156;2022-08-21T04:59:15;16.98;;;4.90;;
15273;SDS011;7738;49.532;11.156;2022-08-21T05:01:48;29.05;;;5.72;;
15273;SDS011;7738;49.532;11.156;2022-08-21T05:04:21;11.18;;;4.97;;
15273;SDS011;7738;49.532;11.156;2022-08-21T05:06:53;12.07;;;5.72;;
15273;SDS011;7738;49.532;11.156;2022-08-21T05:09:29;36.55;;;6.28;;
15273;SDS011;7738;49.532;11.156;2022-08-21T05:11:59;13.77;;;5.03;;
15273;SDS011;7738;49.532;11.156;2022-08-21T05:14:30;20.40;;;6.05;;
15273;SDS011;7738;49.532;11.156;2022-08-21T05:17:00;11.00;;;5.55;;
15273;SDS011;7738;49.532;11.156;2022-08-21T05:19:30;27.08;;;5.88;;
15273;SDS011;7738;49.532;11.156;2022-08-21T05:22:00;20.13;;;5.38;;
15273;SDS011;7738;49.532;11.156;2022-08-21T05:24:33;13.85;;;5.82;;
15273;SDS011;7738;49.532;11.156;2022-08-21T05:27:04;12.03;;;4.87;;
15273;SDS011;7738;49.532;11.156;2022-08-21T05:29:35;12.00;;;5.45;;
15273;SDS011;7738;49.532;11.156;2022-08-21T05:32:07;16.55;;;6.00;;
15273;SDS011;7738;49.532;11.156;2022-08-21T05:34:38;12.90;;;5.63;;
15273;SDS011;7738;49.532;11.156;2022-08-21T05:37:10;16.65;;;5.72;;
15273;SDS011;7738;49.532;11.156;2022-08-21T05:39:43;17.48;;;5.03;;
15273;SDS011;7738;49.532;11.156;2022-08-21T05:42:33;16.98;;;5.45;;
15273;SDS011;7738;49.532;11.156;2022-08-21T05:45:04;15.55;;;7.03;;
15273;SDS011;7738;49.532;11.156;2022-08-21T05:47:35;16.90;;;5.95;;
15273;SDS011;7738;49.532;11.156;2022-08-21T05:50:06;31.13;;;6.53;;
15273;SDS011;7738;49.532;11.156;2022-08-21T05:52:37;64.38;;;6.68;;
15273;SDS011;7738;49.532;11.156;2022-08-21T05:55:09;14.73;;;5.47;;
15273;SDS011;7738;49.532;11.156;2022-08-21T05:57:39;9.55;;;4.85;;
15273;SDS011;7738;49.532;11.156;2022-08-21T06:00:10;28.35;;;6.43;;
15273;SDS011;7738;49.532;11.156;2022-08-21T06:02:41;23.05;;;5.93;;
15273;SDS011;7738;49.532;11.156;2022-08-21T06:05:11;28.90;;;5.72;;
15273;SDS011;7738;49.532;11.156;2022-08-21T06:07:50;32.08;;;5.75;;
15273;SDS011;7738;49.532;11.156;2022-08-21T06:10:23;19.88;;;5.55;;
15273;SDS011;7738;49.532;11.156;2022-08-21T06:12:54;25.55;;;5.88;;
15273;SDS011;7738;49.532;11.156;2022-08-21T06:15:24;30.33;;;5.60;;
15273;SDS011;7738;49.532;11.156;2022-08-21T06:17:54;14.80;;;5.15;;
15273;SDS011;7738;49.532;11.156;2022-08-21T06:20:24;24.95;;;5.63;;
15273;SDS011;7738;49.532;11.156;2022-08-21T06:22:55;14.80;;;4.93;;
15273;SDS011;7738;49.532;11.156;2022-08-21T06:25:27;24.75;;;4.88;;
15273;SDS011;7738;49.532;11.156;2022-08-21T06:28:01;41.35;;;6.72;;
15273;SDS011;7738;49.532;11.156;2022-08-21T06:30:34;38.15;;;5.40;;
15273;SDS011;7738;49.532;11.156;2022-08-21T06:33:05;39.00;;;6.07;;
15273;SDS011;7738;49.532;11.156;2022-08-21T06:35:36;9.52;;;5.60;;
15273;SDS011;7738;49.532;11.156;2022-08-21T06:38:07;68.57;;;8.05;;
15273;SDS011;7738;49.532;11.156;2022-08-21T06:40:40;81.97;;;10.18;;
15273;SDS011;7738;49.532;11.156;2022-08-21T06:43:15;24.45;;;6.80;;
15273;SDS011;7738;49.532;11.156;2022-08-21T06:45:46;51.80;;;8.25;;
15273;SDS011;7738;49.532;11.156;2022-08-21T06:48:16;24.88;;;6.65;;
15273;SDS011;7738;49.532;11.156;2022-08-21T06:50:46;22.80;;;7.57;;
15273;SDS011;7738;49.532;11.156;2022-08-21T06:53:18;34.78;;;7.30;;
15273;SDS011;7738;49.532;11.156;2022-08-21T06:55:52;31.20;;;7.75;;
15273;SDS011;7738;49.532;11.156;2022-08-21T06:58:22;16.73;;;7.18;;
15273;SDS011;7738;49.532;11.156;2022-08-21T07:00:52;17.67;;;8.02;;
15273;SDS011;7738;49.532;11.156;2022-08-21T07:05:57;18.52;;;7.25;;
15273;SDS011;7738;49.532;11.156;2022-08-21T07:08:28;9.25;;;7.53;;
15273;SDS011;7738;49.532;11.156;2022-08-21T07:11:01;16.33;;;8.80;;
15273;SDS011;7738;49.532;11.156;2022-08-21T07:13:35;16.83;;;8.23;;
15273;SDS011;7738;49.532;11.156;2022-08-21T07:16:06;16.95;;;8.02;;
15273;SDS011;7738;49.532;11.156;2022-08-21T07:18:36;10.43;;;7.53;;
15273;SDS011;7738;49.532;11.156;2022-08-21T07:21:07;11.43;;;8.10;;
15273;SDS011;7738;49.532;11.156;2022-08-21T07:23:38;10.93;;;7.85;;
15273;SDS011;7738;49.532;11.156;2022-08-21T07:26:14;11.52;;;7.75;;
15273;SDS011;7738;49.532;11.156;2022-08-21T07:28:46;15.13;;;8.50;;
15273;SDS011;7738;49.532;11.156;2022-08-21T07:31:17;10.85;;;8.25;;
15273;SDS011;7738;49.532;11.156;2022-08-21T07:33:48;14.13;;;9.48;;
15273;SDS011;7738;49.532;11.156;2022-08-21T07:36:18;11.77;;;8.23;;
15273;SDS011;7738;49.532;11.156;2022-08-21T07:38:49;10.98;;;8.32;;
15273;SDS011;7738;49.532;11.156;2022-08-21T07:41:22;16.77;;;10.02;;
15273;SDS011;7738;49.532;11.156;2022-08-21T07:43:55;15.52;;;9.45;;
15273;SDS011;7738;49.532;11.156;2022-08-21T07:46:25;13.82;;;9.48;;
15273;SDS011;7738;49.532;11.156;2022-08-21T07:48:55;12.98;;;8.13;;
15273;SDS011;7738;49.532;11.156;2022-08-21T07:51:26;14.18;;;8.90;;
15273;SDS011;7738;49.532;11.156;2022-08-21T07:53:58;17.13;;;8.88;;
15273;SDS011;7738;49.532;11.156;2022-08-21T07:56:31;16.35;;;9.38;;
15273;SDS011;7738;49.532;11.156;2022-08-21T07:59:01;15.07;;;9.77;;
15273;SDS011;7738;49.532;11.156;2022-08-21T08:01:32;14.50;;;9.65;;
15273;SDS011;7738;49.532;11.156;2022-08-21T08:04:02;12.32;;;9.30;;
15273;SDS011;7738;49.532;11.156;2022-08-21T08:06:32;15.40;;;9.73;;
15273;SDS011;7738;49.532;11.156;2022-08-21T08:09:02;20.73;;;10.55;;
15273;SDS011;7738;49.532;11.156;2022-08-21T08:11:35;14.38;;;10.07;;
15273;SDS011;7738;49.532;11.156;2022-08-21T08:14:09;15.52;;;11.00;;
15273;SDS011;7738;49.532;11.156;2022-08-21T08:16:39;16.25;;;9.95;;
15273;SDS011;7738;49.532;11.156;2022-08-21T08:19:10;14.48;;;10.32;;
15273;SDS011;7738;49.532;11.156;2022-08-21T08:21:40;13.88;;;10.10;;
15273;SDS011;7738;49.532;11.156;2022-08-21T08:24:11;12.80;;;10.27;;
15273;SDS011;7738;49.532;11.156;2022-08-21T08:29:19;15.40;;;10.00;;
15273;SDS011;7738;49.532;11.156;2022-08-21T08:31:50;12.32;;;9.35;;
15273;SDS011;7738;49.532;11.156;2022-08-21T08:34:21;13.68;;;9.15;;
15273;SDS011;7738;49.532;11.156;2022-08-21T08:36:51;14.60;;;10.70;;
15273;SDS011;7738;49.532;11.156;2022-08-21T08:39:24;14.18;;;10.38;;
15273;SDS011;7738;49.532;11.156;2022-08-21T08:41:59;13.00;;;9.82;;
15273;SDS011;7738;49.532;11.156;2022-08-21T08:44:56;13.95;;;10.80;;
15273;SDS011;7738;49.532;11.156;2022-08-21T08:47:27;14.50;;;10.82;;
15273;SDS011;7738;49.532;11.156;2022-08-21T08:50:00;12.02;;;9.68;;
15273;SDS011;7738;49.532;11.156;2022-08-21T08:52:33;12.10;;;9.38;;
15273;SDS011;7738;49.532;11.156;2022-08-21T08:55:06;12.38;;;9.90;;
15273;SDS011;7738;49.532;11.156;2022-08-21T08:57:42;12.55;;;8.90;;
15273;SDS011;7738;49.532;11.156;2022-08-21T09:00:17;12.07;;;9.05;;
15273;SDS011;7738;49.532;11.156;2022-08-21T09:02:48;11.18;;;8.30;;
15273;SDS011;7738;49.532;11.156;2022-08-21T09:05:24;11.80;;;9.05;;
15273;SDS011;7738;49.532;11.156;2022-08-21T09:10:52;12.60;;;8.60;;
15273;SDS011;7738;49.532;11.156;2022-08-21T09:13:36;11.00;;;9.00;;
15273;SDS011;7738;49.532;11.156;2022-08-21T09:16:09;11.10;;;8.93;;
15273;SDS011;7738;49.532;11.156;2022-08-21T09:18:52;11.88;;;9.40;;
15273;SDS011;7738;49.532;11.156;2022-08-21T09:21:31;11.25;;;9.60;;
15273;SDS011;7738;49.532;11.156;2022-08-21T09:24:13;14.23;;;10.63;;
15273;SDS011;7738;49.532;11.156;2022-08-21T09:26:49;11.30;;;9.35;;
15273;SDS011;7738;49.532;11.156;2022-08-21T09:29:25;12.43;;;9.27;;
15273;SDS011;7738;49.532;11.156;2022-08-21T09:31:59;10.43;;;8.57;;
15273;SDS011;7738;49.532;11.156;2022-08-21T09:34:30;11.98;;;9.63;;
15273;SDS011;7738;49.532;11.156;2022-08-21T09:37:00;11.93;;;9.18;;
15273;SDS011;7738;49.532;11.156;2022-08-21T09:39:31;13.75;;;9.85;;
15273;SDS011;7738;49.532;11.156;2022-08-21T09:42:07;10.75;;;9.48;;
15273;SDS011;7738;49.532;11.156;2022-08-21T09:44:40;13.07;;;9.98;;
15273;SDS011;7738;49.532;11.156;2022-08-21T09:47:11;12.95;;;8.57;;
15273;SDS011;7738;49.532;11.156;2022-08-21T09:49:42;10.05;;;8.25;;
15273;SDS011;7738;49.532;11.156;2022-08-21T09:52:16;10.38;;;8.45;;
15273;SDS011;7738;49.532;11.156;2022-08-21T09:54:50;11.35;;;8.68;;
15273;SDS011;7738;49.532;11.156;2022-08-21T09:57:22;9.02;;;7.82;;
15273;SDS011;7738;49.532;11.156;2022-08-21T10:00:18;10.18;;;7.88;;
15273;SDS011;7738;49.532;11.156;2022-08-21T10:02:49;8.93;;;7.45;;
15273;SDS011;7738;49.532;11.156;2022-08-21T10:05:19;8.32;;;7.15;;
15273;SDS011;7738;49.532;11.156;2022-08-21T10:07:55;8.88;;;7.28;;
15273;SDS011;7738;49.532;11.156;2022-08-21T10:10:25;8.65;;;7.47;;
15273;SDS011;7738;49.532;11.156;2022-08-21T10:13:00;8.93;;;7.20;;
15273;SDS011;7738;49.532;11.156;2022-08-21T10:15:42;8.75;;;7.68;;
15273;SDS011;7738;49.532;11.156;2022-08-21T10:18:17;10.75;;;8.15;;
15273;SDS011;7738;49.532;11.156;2022-08-21T10:20:52;8.98;;;6.65;;
15273;SDS011;7738;49.532;11.156;2022-08-21T10:23:36;9.55;;;7.95;;
15273;SDS011;7738;49.532;11.156;2022-08-21T10:26:16;8.07;;;7.28;;
15273;SDS011;7738;49.532;11.156;2022-08-21T10:28:51;8.20;;;7.07;;
15273;SDS011;7738;49.532;11.156;2022-08-21T10:31:30;9.57;;;7.75;;
15273;SDS011;7738;49.532;11.156;2022-08-21T10:34:10;8.27;;;7.47;;
15273;SDS011;7738;49.532;11.156;2022-08-21T10:36:46;7.82;;;6.97;;
15273;SDS011;7738;49.532;11.156;2022-08-21T10:39:24;7.07;;;6.38;;
15273;SDS011;7738;49.532;11.156;2022-08-21T10:45:10;7.63;;;6.93;;
15273;SDS011;7738;49.532;11.156;2022-08-21T10:48:03;6.95;;;6.25;;
15273;SDS011;7738;49.532;11.156;2022-08-21T10:50:35;6.10;;;5.50;;
15273;SDS011;7738;49.532;11.156;2022-08-21T10:53:12;4.97;;;4.15;;
15273;SDS011;7738;49.532;11.156;2022-08-21T10:55:51;5.30;;;4.80;;
15273;SDS011;7738;49.532;11.156;2022-08-21T10:58:25;7.65;;;6.50;;
15273;SDS011;7738;49.532;11.156;2022-08-21T11:03:29;6.57;;;4.70;;
15273;SDS011;7738;49.532;11.156;2022-08-21T11:06:02;5.28;;;3.88;;
15273;SDS011;7738;49.532;11.156;2022-08-21T11:08:38;8.45;;;4.05;;
15273;SDS011;7738;49.532;11.156;2022-08-21T11:11:12;5.25;;;4.38;;
15273;SDS011;7738;49.532;11.156;2022-08-21T11:13:49;5.25;;;4.75;;
15273;SDS011;7738;49.532;11.156;2022-08-21T11:16:24;6.50;;;4.43;;
15273;SDS011;7738;49.532;11.156;2022-08-21T11:19:00;6.63;;;4.25;;
15273;SDS011;7738;49.532;11.156;2022-08-21T11:21:36;6.45;;;3.95;;
15273;SDS011;7738;49.532;11.156;2022-08-21T11:24:17;4.05;;;3.28;;
15273;SDS011;7738;49.532;11.156;2022-08-21T11:26:49;4.65;;;4.07;;
15273;SDS011;7738;49.532;11.156;2022-08-21T11:29:23;5.32;;;4.55;;
15273;SDS011;7738;49.532;11.156;2022-08-21T11:32:01;5.05;;;2.63;;
15273;SDS011;7738;49.532;11.156;2022-08-21T11:34:51;3.38;;;3.08;;
15273;SDS011;7738;49.532;11.156;2022-08-21T11:37:30;3.75;;;3.22;;
15273;SDS011;7738;49.532;11.156;2022-08-21T11:40:05;4.00;;;2.60;;
15273;SDS011;7738;49.532;11.156;2022-08-21T11:42:40;5.60;;;4.00;;
15273;SDS011;7738;49.532;11.156;2022-08-21T11:45:19;4.45;;;3.92;;
15273;SDS011;7738;49.532;11.156;2022-08-21T11:47:56;5.28;;;3.80;;
15273;SDS011;7738;49.532;11.156;2022-08-21T11:50:32;3.90;;;3.38;;
15273;SDS011;7738;49.532;11.156;2022-08-21T11:53:03;3.85;;;3.50;;
15273;SDS011;7738;49.532;11.156;2022-08-21T11:55:36;4.15;;;2.97;;
15273;SDS011;7738;49.532;11.156;2022-08-21T11:58:08;4.28;;;3.05;;
15273;SDS011;7738;49.532;11.156;2022-08-21T12:00:41;3.42;;;3.05;;
15273;SDS011;7738;49.532;11.156;2022-08-21T12:03:14;3.33;;;2.97;;
15273;SDS011;7738;49.532;11.156;2022-08-21T12:05:52;3.70;;;2.67;;
15273;SDS011;7738;49.532;11.156;2022-08-21T12:08:27;3.05;;;2.67;;
15273;SDS011;7738;49.532;11.156;2022-08-21T12:11:03;4.45;;;2.42;;
15273;SDS011;7738;49.532;11.156;2022-08-21T12:13:34;2.72;;;2.50;;
15273;SDS011;7738;49.532;11.156;2022-08-21T12:16:12;3.42;;;2.15;;
15273;SDS011;7738;49.532;11.156;2022-08-21T12:18:42;3.33;;;2.25;;
15273;SDS011;7738;49.532;11.156;2022-08-21T12:21:20;2.72;;;2.40;;
15273;SDS011;7738;49.532;11.156;2022-08-21T12:23:59;3.08;;;2.22;;
15273;SDS011;7738;49.532;11.156;2022-08-21T12:26:30;3.38;;;2.40;;
15273;SDS011;7738;49.532;11.156;2022-08-21T12:29:12;4.55;;;2.03;;
15273;SDS011;7738;49.532;11.156;2022-08-21T12:31:48;4.47;;;2.20;;
15273;SDS011;7738;49.532;11.156;2022-08-21T12:34:18;3.47;;;2.05;;
15273;SDS011;7738;49.532;11.156;2022-08-21T12:36:53;2.20;;;1.67;;
15273;SDS011;7738;49.532;11.156;2022-08-21T12:39:25;3.03;;;1.92;;
15273;SDS011;7738;49.532;11.156;2022-08-21T12:41:58;2.25;;;1.63;;
15273;SDS011;7738;49.532;11.156;2022-08-21T12:44:32;2.42;;;2.03;;
15273;SDS011;7738;49.532;11.156;2022-08-21T12:47:05;2.85;;;1.95;;
15273;SDS011;7738;49.532;11.156;2022-08-21T12:49:44;2.17;;;1.88;;
15273;SDS011;7738;49.532;11.156;2022-08-21T12:52:19;2.22;;;1.70;;
15273;SDS011;7738;49.532;11.156;2022-08-21T12:54:50;2.28;;;1.55;;
15273;SDS011;7738;49.532;11.156;2022-08-21T12:57:21;2.05;;;1.83;;
15273;SDS011;7738;49.532;11.156;2022-08-21T12:59:54;1.63;;;1.52;;
15273;SDS011;7738;49.532;11.156;2022-08-21T13:02:26;3.20;;;1.90;;
15273;SDS011;7738;49.532;11.156;2022-08-21T13:04:58;1.60;;;1.40;;
15273;SDS011;7738;49.532;11.156;2022-08-21T13:07:36;3.28;;;1.67;;
15273;SDS011;7738;49.532;11.156;2022-08-21T13:10:07;3.08;;;2.22;;
15273;SDS011;7738;49.532;11.156;2022-08-21T13:12:47;2.17;;;1.60;;
15273;SDS011;7738;49.532;11.156;2022-08-21T13:15:22;2.25;;;1.70;;
15273;SDS011;7738;49.532;11.156;2022-08-21T13:17:59;1.98;;;1.80;;
15273;SDS011;7738;49.532;11.156;2022-08-21T13:20:33;2.30;;;1.98;;
15273;SDS011;7738;49.532;11.156;2022-08-21T13:23:21;3.40;;;1.90;;
15273;SDS011;7738;49.532;11.156;2022-08-21T13:25:53;2.85;;;1.73;;
15273;SDS011;7738;49.532;11.156;2022-08-21T13:28:25;1.70;;;1.60;;
15273;SDS011;7738;49.532;11.156;2022-08-21T13:31:05;4.43;;;1.45;;
15273;SDS011;7738;49.532;11.156;2022-08-21T13:33:37;2.30;;;1.77;;
15273;SDS011;7738;49.532;11.156;2022-08-21T13:36:11;1.83;;;1.42;;
15273;SDS011;7738;49.532;11.156;2022-08-21T13:38:46;2.42;;;1.30;;
15273;SDS011;7738;49.532;11.156;2022-08-21T13:41:19;3.83;;;1.55;;
15273;SDS011;7738;49.532;11.156;2022-08-21T13:43:55;3.90;;;1.40;;
15273;SDS011;7738;49.532;11.156;2022-08-21T13:46:26;2.53;;;1.70;;
15273;SDS011;7738;49.532;11.156;2022-08-21T13:48:58;2.30;;;1.23;;
15273;SDS011;7738;49.532;11.156;2022-08-21T13:51:29;2.17;;;1.38;;
15273;SDS011;7738;49.532;11.156;2022-08-21T13:54:12;1.02;;;0.93;;
15273;SDS011;7738;49.532;11.156;2022-08-21T13:56:44;1.38;;;1.27;;
15273;SDS011;7738;49.532;11.156;2022-08-21T13:59:23;1.83;;;1.40;;
15273;SDS011;7738;49.532;11.156;2022-08-21T14:01:54;3.42;;;1.20;;
15273;SDS011;7738;49.532;11.156;2022-08-21T14:04:26;2.90;;;1.70;;
15273;SDS011;7738;49.532;11.156;2022-08-21T14:07:03;1.60;;;1.30;;
15273;SDS011;7738;49.532;11.156;2022-08-21T14:09:47;1.50;;;1.27;;
15273;SDS011;7738;49.532;11.156;2022-08-21T14:12:19;2.65;;;1.70;;
15273;SDS011;7738;49.532;11.156;2022-08-21T14:14:55;3.50;;;1.48;;
15273;SDS011;7738;49.532;11.156;2022-08-21T14:17:27;2.13;;;1.33;;
15273;SDS011;7738;49.532;11.156;2022-08-21T14:19:59;6.00;;;1.50;;
15273;SDS011;7738;49.532;11.156;2022-08-21T14:22:31;2.00;;;1.58;;
15273;SDS011;7738;49.532;11.156;2022-08-21T14:25:11;1.90;;;1.50;;
15273;SDS011;7738;49.532;11.156;2022-08-21T14:27:48;1.80;;;1.50;;
15273;SDS011;7738;49.532;11.156;2022-08-21T14:30:21;1.42;;;1.13;;
15273;SDS011;7738;49.532;11.156;2022-08-21T14:32:58;1.77;;;1.33;;
15273;SDS011;7738;49.532;11.156;2022-08-21T14:35:28;1.65;;;1.33;;
15273;SDS011;7738;49.532;11.156;2022-08-21T14:37:59;2.00;;;1.35;;
15273;SDS011;7738;49.532;11.156;2022-08-21T14:40:32;1.58;;;1.20;;
15273;SDS011;7738;49.532;11.156;2022-08-21T14:43:03;1.77;;;1.50;;
15273;SDS011;7738;49.532;11.156;2022-08-21T14:45:34;1.85;;;1.45;;
15273;SDS011;7738;49.532;11.156;2022-08-21T14:48:07;1.80;;;1.27;;
15273;SDS011;7738;49.532;11.156;2022-08-21T14:50:37;1.98;;;1.42;;
15273;SDS011;7738;49.532;11.156;2022-08-21T14:53:08;2.50;;;1.20;;
15273;SDS011;7738;49.532;11.156;2022-08-21T14:55:41;2.53;;;1.50;;
15273;SDS011;7738;49.532;11.156;2022-08-21T14:58:24;2.30;;;1.33;;
15273;SDS011;7738;49.532;11.156;2022-08-21T15:00:54;2.25;;;1.40;;
15273;SDS011;7738;49.532;11.156;2022-08-21T15:03:30;1.30;;;1.02;;
15273;SDS011;7738;49.532;11.156;2022-08-21T15:06:03;1.42;;;1.00;;
15273;SDS011;7738;49.532;11.156;2022-08-21T15:08:34;1.67;;;1.15;;
15273;SDS011;7738;49.532;11.156;2022-08-21T15:11:07;1.83;;;1.17;;
15273;SDS011;7738;49.532;11.156;2022-08-21T15:14:02;3.05;;;1.40;;
15273;SDS011;7738;49.532;11.156;2022-08-21T15:16:33;1.52;;;1.00;;
15273;SDS011;7738;49.532;11.156;2022-08-21T15:19:03;4.45;;;0.98;;
15273;SDS011;7738;49.532;11.156;2022-08-21T15:21:33;1.48;;;0.88;;
15273;SDS011;7738;49.532;11.156;2022-08-21T15:24:04;1.38;;;1.00;;
15273;SDS011;7738;49.532;11.156;2022-08-21T15:26:37;5.72;;;1.30;;
15273;SDS011;7738;49.532;11.156;2022-08-21T15:29:07;1.50;;;1.20;;
15273;SDS011;7738;49.532;11.156;2022-08-21T15:31:38;2.60;;;1.27;;
15273;SDS011;7738;49.532;11.156;2022-08-21T15:34:19;1.50;;;0.80;;
15273;SDS011;7738;49.532;11.156;2022-08-21T15:36:52;2.28;;;1.05;;
15273;SDS011;7738;49.532;11.156;2022-08-21T15:39:23;1.55;;;1.00;;
15273;SDS011;7738;49.532;11.156;2022-08-21T15:42:00;1.73;;;1.20;;